Alexandria, Romania

9:42 PM EET on February 01, 2015 (GMT +0200)
Rasuceni | Change Station
CLOSE
Current Station
Personal Weather Station
Location: R%u0103suceni,
Elevation: 217 ft
Nearby Weather Stations

Elev 217 ft 44.10 °N, 25.67 °E | Updated 1 second ago

Overcast
Overcast
42.1 °F
Feels Like 42 °F
N
0.8
Wind Variable Wind from North
Gusts 1.2 mph

Today
High -- | Low -- °F
--% Chance of Precip.
Yesterday
High -- | Low -- °F
Precip. -- in
7:36 AM 5:28 PM
Waxing Gibbous, 96% visible
Pressure 29.39 in
Visibility 6.2 miles
Clouds Few 400 ft
Scattered Clouds 1500 ft
Overcast 2800 ft
Windchill 42 °F
Dew Point 42 °F
Humidity 99%
Rainfall 0.22 in
Snow Depth Not available.
UV 0 out of 12
Pollen Not available.
Air Quality Not available.
Flu Activity Not available.
METAR LRBS 011930Z 22006KT 9999 FEW004 SCT015 OVC028 05/04 Q0995 R07/29//95 NOSIG

More Conditions Fewer Conditions

Pressure 29.39 in
Visibility 6.2 miles
Clouds Few 400 ft
Scattered Clouds 1500 ft
Overcast 2800 ft
Windchill 42 °F
Dew Point 42 °F
Humidity 99%
Rainfall 0.22 in
Snow Depth Not available.
UV 0 out of 12
Pollen Not available.
Air Quality Not available.
Flu Activity Not available.
METAR LRBS 011930Z 22006KT 9999 FEW004 SCT015 OVC028 05/04 Q0995 R07/29//95 NOSIG

More Conditions Fewer Conditions

10-Day Weather Forecast

Almanac

Astronomy

Feb. 01, 2015 Rise Set
Actual Time
Civil Twilight
Nautical Twilight
Astronomical Twilight
Moon
Length of Visible Light
Length of Day
Tomorrow will be .
, % of the Moon is Illuminated

Today's Extremes

Country Highs Country Lows

Community

WunderPhotos

Upload Photos

1,792,471 photos uploaded!

WunderBlogs® & News

Nearby

Air Quality

  Air Quality AQ Index Pollutant
Not available.

Snow Depth

Station Depth Elevation

Earthquake Activity

City Distance Mag. Time & Date
Minimum magnitude displayed is 2.5.

Coastal Water Temperatures

Place Temperature

Nearby Weather Stations